Todd G — WRC6671 — position and weather

sailwx.info

Track history (hours):
 
Tides and Currents Weather Stations Pressure Air Temp Water Temp Dewpoint Dewpoint Depression Visibility Wind Speed Wind Dir Waves Ship Positions

Todd G

Owner: Harbor Towing & Fleeting, Inc., Metairie, LA. More information available from US FCC via Universal Licensing System and Coast Guard Vessel Documentation Center.

Last reported at 2015-May-29 19:33 UTC. Time now 2015-May-30 06:33 UTC.
Position N 29°56' W 090°00'.

Length 16 m.

Type: Towing. MMSI: 366988470.

Date/timePositionNaut miles runAvg speedWind from/ knotsBaromVisibWave heightAir tempDewpointWater temp
2015-May-29 19:33N 29°56' W 090°00'6 1.0
2015-May-29 13:14N 30°01' W 089°55'2 2.3
2015-May-29 12:27N 30°01' W 089°53'4 3.9
2015-May-29 11:29N 30°00' W 089°57'4 4.7
2015-May-29 10:33N 29°58' W 090°02'1 1.1
2015-May-29 09:20N 29°57' W 090°01'1 1.1
2015-May-29 08:10N 29°57' W 090°02'0 0.6
2015-May-29 07:29N 29°58' W 090°02'1 0.7
2015-May-29 06:12N 29°58' W 090°02'2 2.1
2015-May-29 05:15N 29°60' W 090°01'2 2.9
2015-May-29 04:31N 29°58' W 090°02'2 1.5
2015-May-29 03:08N 29°56' W 090°00'0 0.0
2015-May-29 02:17N 29°56' W 090°00'0 0.0
2015-May-29 01:27N 29°56' W 090°00'0 0.0
2015-May-29 00:13N 29°56' W 090°00'0 0.0
2015-May-28 23:21N 29°56' W 090°00'0 0.0
2015-May-28 22:31N 29°56' W 090°00'0 0.0
2015-May-28 21:22N 29°56' W 090°00'0 0.0
2015-May-28 20:32N 29°56' W 090°00'0 0.0
2015-May-28 19:33N 29°56' W 090°00'0 0.0
2015-May-28 18:32N 29°56' W 090°00'0 0.0
2015-May-28 17:33N 29°56' W 090°00'0 0.0
2015-May-28 16:32N 29°56' W 090°00'0 0.0
2015-May-28 15:32N 29°56' W 090°00'0 0.0
2015-May-28 14:28N 29°56' W 090°00'2 1.8
2015-May-28 13:16N 29°55' W 089°58'4 0.2
2015-May-27 19:20N 29°57' W 090°02'1 1.2
2015-May-27 18:05N 29°56' W 090°00'0 0.0
2015-May-27 17:27N 29°56' W 090°00'0 0.0
2015-May-27 16:26N 29°56' W 090°00'0 0.0
2015-May-27 15:14N 29°56' W 090°00'0 0.0
2015-May-27 14:08N 29°56' W 090°00'0 0.0
2015-May-27 13:26N 29°56' W 090°00'0 0.0
2015-May-27 12:27N 29°56' W 090°00'0 0.0
2015-May-27 11:32N 29°56' W 090°00'0 0.0
2015-May-27 10:31N 29°56' W 090°00'0 0.0
2015-May-27 09:28N 29°56' W 090°00'0 0.0
2015-May-27 08:32N 29°56' W 090°00'0 0.0
2015-May-27 07:32N 29°56' W 090°00'0 0.0
2015-May-27 06:33N 29°56' W 090°00'0 0.0
2015-May-27 05:30N 29°56' W 090°00'0 0.0
2015-May-27 04:33N 29°56' W 090°00'0 0.0
2015-May-27 03:25N 29°56' W 090°00'0 0.0
2015-May-27 02:31N 29°56' W 090°00'0 0.0
2015-May-27 01:31N 29°56' W 090°00'0 0.0
2015-May-27 00:33N 29°56' W 090°00'0 0.0
2015-May-26 23:32N 29°56' W 090°00'2 1.9
2015-May-26 22:27N 29°58' W 090°02'0 0.0
2015-May-26 21:30N 29°58' W 090°02'0 0.0
2015-May-26 20:33N 29°58' W 090°02'7 5.8
2015-May-26 19:24N 30°01' W 089°55'0 0.2
2015-May-26 17:13N 30°01' W 089°55'4 5.4
2015-May-26 16:24N 29°60' W 090°00'2 2.8
2015-May-26 15:32N 29°58' W 090°02'2 1.7
2015-May-26 14:26N 29°56' W 090°00'0 0.1
2015-May-26 13:27N 29°56' W 090°00'0 0.0
2015-May-26 12:29N 29°56' W 090°00'2 0.1
2015-May-25 23:15N 29°58' W 090°02'0 0.1
2015-May-25 19:20N 29°58' W 090°02'1 0.3
2015-May-25 16:18N 29°57' W 090°01'0 0.0
2015-May-25 15:29N 29°57' W 090°01'1 0.3
2015-May-25 13:31N 29°57' W 090°02'2 1.4
2015-May-25 12:20N 29°56' W 090°00'0 0.0
2015-May-25 11:30N 29°56' W 090°00'0 0.0
2015-May-25 10:29N 29°56' W 090°00'0 0.0
2015-May-25 09:22N 29°56' W 090°00'0 0.0
2015-May-25 08:32N 29°56' W 090°00'0 0.0
2015-May-25 07:32N 29°56' W 090°00'0 0.0
2015-May-25 06:27N 29°56' W 090°00'0 0.0
2015-May-25 05:28N 29°56' W 090°00'0 0.0
2015-May-25 04:31N 29°56' W 090°00'0 0.0
2015-May-25 03:23N 29°56' W 090°00'0 0.0
2015-May-25 02:24N 29°56' W 090°00'0 0.1
2015-May-25 01:33N 29°56' W 090°00'0 0.0
2015-May-25 00:32N 29°56' W 090°00'0 0.1
2015-May-24 23:32N 29°56' W 090°00'0 0.0
2015-May-24 22:33N 29°56' W 090°00'2 1.9
2015-May-24 21:32N 29°58' W 090°02'0 0.1
2015-May-24 20:32N 29°58' W 090°02'2 2.1
2015-May-24 19:32N 29°60' W 090°00'0 0.1
2015-May-24 18:32N 29°60' W 090°00'2 2.2
2015-May-24 17:30N 29°58' W 090°02'1 0.6
2015-May-24 16:29N 29°57' W 090°01'1 0.9
2015-May-24 15:03N 29°56' W 090°00'0 0.0
2015-May-24 14:19N 29°56' W 090°00'4 0.2
2015-May-23 18:07N 29°60' W 089°60'2 2.8
2015-May-23 17:15N 29°58' W 090°02'1 0.7
2015-May-23 16:29N 29°57' W 090°02'0 0.0
2015-May-23 15:32N 29°57' W 090°02'0 0.0
2015-May-23 14:31N 29°57' W 090°02'1 1.4
2015-May-23 13:26N 29°56' W 090°00'0 0.0
2015-May-23 11:26N 29°56' W 090°00'0 0.0
2015-May-23 10:30N 29°56' W 090°00'0 0.0
2015-May-23 09:32N 29°56' W 090°00'0 0.0
2015-May-23 08:33N 29°56' W 090°00'2 1.7
2015-May-23 07:32N 29°58' W 090°02'1 0.9
2015-May-23 06:30N 29°59' W 090°01'5 5.0
2015-May-23 05:30N 30°00' W 089°56'2 1.7
2015-May-23 04:03N 30°01' W 089°53'2 4.4
2015-May-23 03:30N 30°00' W 089°56'5 5.2
2015-May-23 02:33N 29°59' W 090°01'1 1.0
2015-May-23 01:33N 29°58' W 090°02'0 0.5
2015-May-23 00:31N 29°57' W 090°01'1 1.4
2015-May-22 23:32N 29°56' W 090°00'0 0.0
2015-May-22 22:32N 29°56' W 090°00'0 0.0
2015-May-22 21:32N 29°56' W 090°00'0 0.0
2015-May-22 20:10N 29°56' W 090°00'0 0.0
2015-May-22 19:29N 29°56' W 090°00'0 0.0
2015-May-22 18:28N 29°56' W 090°00'0 0.0
2015-May-22 02:21N 29°57' W 090°01'3 0.8
2015-May-21 22:18N 29°60' W 090°00'0 0.1
2015-May-21 19:29N 29°60' W 090°00'3 2.1
2015-May-21 18:15N 29°58' W 090°02'0 0.3
2015-May-21 17:31N 29°58' W 090°02'2 0.8
2015-May-21 15:33N 29°56' W 090°00'0 0.0
2015-May-21 14:16N 29°56' W 090°00'0 0.0
2015-May-21 13:31N 29°56' W 090°00'0 0.0
2015-May-21 12:33N 29°56' W 090°00'0 0.0
2015-May-21 11:29N 29°56' W 090°00'0 0.0
2015-May-21 10:28N 29°56' W 090°00'0 0.0
2015-May-21 09:32N 29°56' W 090°00'0 0.0
2015-May-21 08:30N 29°56' W 090°00'0 0.0
2015-May-21 07:33N 29°56' W 090°00'0 0.0
2015-May-21 06:33N 29°56' W 090°00'0 0.0
2015-May-21 05:31N 29°56' W 090°00'0 0.0
2015-May-21 04:32N 29°56' W 090°00'0 0.0
2015-May-21 03:32N 29°56' W 090°00'0 0.0
2015-May-21 02:33N 29°56' W 090°00'2 1.9
2015-May-21 01:32N 29°58' W 090°02'2 2.3
2015-May-21 00:32N 29°60' W 090°00'2 2.2
2015-May-20 23:33N 29°58' W 090°02'1 1.0
2015-May-20 22:31N 29°57' W 090°02'1 1.0
2015-May-20 21:04N 29°56' W 090°00'0 0.0
2015-May-20 20:18N 29°56' W 090°00'0 0.0
2015-May-20 06:08N 29°56' W 090°00'0 0.0
2015-May-20 04:24N 29°56' W 090°00'0 0.0
2015-May-20 03:23N 29°56' W 090°00'0 0.0
2015-May-20 02:14N 29°56' W 090°00'0 0.0
2015-May-20 01:33N 29°56' W 090°00'0 0.0
2015-May-20 00:16N 29°56' W 090°00'0 0.0
2015-May-19 23:29N 29°56' W 090°00'0 0.0
2015-May-19 22:31N 29°56' W 090°00'0 0.0
2015-May-19 21:11N 29°56' W 090°00'0 0.0
2015-May-19 20:19N 29°56' W 090°00'  
Track history (hours):
 
Tides and Currents Weather Stations Pressure Air Temp Water Temp Dewpoint Dewpoint Depression Visibility Wind Speed Wind Dir Waves Ship Positions

Todd G

Owner: Harbor Towing & Fleeting, Inc., Metairie, LA. More information available from US FCC via Universal Licensing System and Coast Guard Vessel Documentation Center.

Last reported at 2015-May-29 19:33 UTC. Time now 2015-May-30 06:33 UTC.
Position N 29°56' W 090°00'.

Length 16 m.

Type: Towing. MMSI: 366988470.

Date/timePositionNaut miles runAvg speedWind from/ knotsBaromVisibWave heightAir tempDewpointWater temp
2015-May-29 19:33N 29°56' W 090°00'6 1.0
2015-May-29 13:14N 30°01' W 089°55'2 2.3
2015-May-29 12:27N 30°01' W 089°53'4 3.9
2015-May-29 11:29N 30°00' W 089°57'4 4.7
2015-May-29 10:33N 29°58' W 090°02'1 1.1
2015-May-29 09:20N 29°57' W 090°01'1 1.1
2015-May-29 08:10N 29°57' W 090°02'0 0.6
2015-May-29 07:29N 29°58' W 090°02'1 0.7
2015-May-29 06:12N 29°58' W 090°02'2 2.1
2015-May-29 05:15N 29°60' W 090°01'2 2.9
2015-May-29 04:31N 29°58' W 090°02'2 1.5
2015-May-29 03:08N 29°56' W 090°00'0 0.0
2015-May-29 02:17N 29°56' W 090°00'0 0.0
2015-May-29 01:27N 29°56' W 090°00'0 0.0
2015-May-29 00:13N 29°56' W 090°00'0 0.0
2015-May-28 23:21N 29°56' W 090°00'0 0.0
2015-May-28 22:31N 29°56' W 090°00'0 0.0
2015-May-28 21:22N 29°56' W 090°00'0 0.0
2015-May-28 20:32N 29°56' W 090°00'0 0.0
2015-May-28 19:33N 29°56' W 090°00'0 0.0
2015-May-28 18:32N 29°56' W 090°00'0 0.0
2015-May-28 17:33N 29°56' W 090°00'0 0.0
2015-May-28 16:32N 29°56' W 090°00'0 0.0
2015-May-28 15:32N 29°56' W 090°00'0 0.0
2015-May-28 14:28N 29°56' W 090°00'2 1.8
2015-May-28 13:16N 29°55' W 089°58'4 0.2
2015-May-27 19:20N 29°57' W 090°02'1 1.2
2015-May-27 18:05N 29°56' W 090°00'0 0.0
2015-May-27 17:27N 29°56' W 090°00'0 0.0
2015-May-27 16:26N 29°56' W 090°00'0 0.0
2015-May-27 15:14N 29°56' W 090°00'0 0.0
2015-May-27 14:08N 29°56' W 090°00'0 0.0
2015-May-27 13:26N 29°56' W 090°00'0 0.0
2015-May-27 12:27N 29°56' W 090°00'0 0.0
2015-May-27 11:32N 29°56' W 090°00'0 0.0
2015-May-27 10:31N 29°56' W 090°00'0 0.0
2015-May-27 09:28N 29°56' W 090°00'0 0.0
2015-May-27 08:32N 29°56' W 090°00'0 0.0
2015-May-27 07:32N 29°56' W 090°00'0 0.0
2015-May-27 06:33N 29°56' W 090°00'0 0.0
2015-May-27 05:30N 29°56' W 090°00'0 0.0
2015-May-27 04:33N 29°56' W 090°00'0 0.0
2015-May-27 03:25N 29°56' W 090°00'0 0.0
2015-May-27 02:31N 29°56' W 090°00'0 0.0
2015-May-27 01:31N 29°56' W 090°00'0 0.0
2015-May-27 00:33N 29°56' W 090°00'0 0.0
2015-May-26 23:32N 29°56' W 090°00'2 1.9
2015-May-26 22:27N 29°58' W 090°02'0 0.0
2015-May-26 21:30N 29°58' W 090°02'0 0.0
2015-May-26 20:33N 29°58' W 090°02'7 5.8
2015-May-26 19:24N 30°01' W 089°55'0 0.2
2015-May-26 17:13N 30°01' W 089°55'4 5.4
2015-May-26 16:24N 29°60' W 090°00'2 2.8
2015-May-26 15:32N 29°58' W 090°02'2 1.7
2015-May-26 14:26N 29°56' W 090°00'0 0.1
2015-May-26 13:27N 29°56' W 090°00'0 0.0
2015-May-26 12:29N 29°56' W 090°00'2 0.1
2015-May-25 23:15N 29°58' W 090°02'0 0.1
2015-May-25 19:20N 29°58' W 090°02'1 0.3
2015-May-25 16:18N 29°57' W 090°01'0 0.0
2015-May-25 15:29N 29°57' W 090°01'1 0.3
2015-May-25 13:31N 29°57' W 090°02'2 1.4
2015-May-25 12:20N 29°56' W 090°00'0 0.0
2015-May-25 11:30N 29°56' W 090°00'0 0.0
2015-May-25 10:29N 29°56' W 090°00'0 0.0
2015-May-25 09:22N 29°56' W 090°00'0 0.0
2015-May-25 08:32N 29°56' W 090°00'0 0.0
2015-May-25 07:32N 29°56' W 090°00'0 0.0
2015-May-25 06:27N 29°56' W 090°00'0 0.0
2015-May-25 05:28N 29°56' W 090°00'0 0.0
2015-May-25 04:31N 29°56' W 090°00'0 0.0
2015-May-25 03:23N 29°56' W 090°00'0 0.0
2015-May-25 02:24N 29°56' W 090°00'0 0.1
2015-May-25 01:33N 29°56' W 090°00'0 0.0
2015-May-25 00:32N 29°56' W 090°00'0 0.1
2015-May-24 23:32N 29°56' W 090°00'0 0.0
2015-May-24 22:33N 29°56' W 090°00'2 1.9
2015-May-24 21:32N 29°58' W 090°02'0 0.1
2015-May-24 20:32N 29°58' W 090°02'2 2.1
2015-May-24 19:32N 29°60' W 090°00'0 0.1
2015-May-24 18:32N 29°60' W 090°00'2 2.2
2015-May-24 17:30N 29°58' W 090°02'1 0.6
2015-May-24 16:29N 29°57' W 090°01'1 0.9
2015-May-24 15:03N 29°56' W 090°00'0 0.0
2015-May-24 14:19N 29°56' W 090°00'4 0.2
2015-May-23 18:07N 29°60' W 089°60'2 2.8
2015-May-23 17:15N 29°58' W 090°02'1 0.7
2015-May-23 16:29N 29°57' W 090°02'0 0.0
2015-May-23 15:32N 29°57' W 090°02'0 0.0
2015-May-23 14:31N 29°57' W 090°02'1 1.4
2015-May-23 13:26N 29°56' W 090°00'0 0.0
2015-May-23 11:26N 29°56' W 090°00'0 0.0
2015-May-23 10:30N 29°56' W 090°00'0 0.0
2015-May-23 09:32N 29°56' W 090°00'0 0.0
2015-May-23 08:33N 29°56' W 090°00'2 1.7
2015-May-23 07:32N 29°58' W 090°02'1 0.9
2015-May-23 06:30N 29°59' W 090°01'5 5.0
2015-May-23 05:30N 30°00' W 089°56'2 1.7
2015-May-23 04:03N 30°01' W 089°53'2 4.4
2015-May-23 03:30N 30°00' W 089°56'5 5.2
2015-May-23 02:33N 29°59' W 090°01'1 1.0
2015-May-23 01:33N 29°58' W 090°02'0 0.5
2015-May-23 00:31N 29°57' W 090°01'1 1.4
2015-May-22 23:32N 29°56' W 090°00'0 0.0
2015-May-22 22:32N 29°56' W 090°00'0 0.0
2015-May-22 21:32N 29°56' W 090°00'0 0.0
2015-May-22 20:10N 29°56' W 090°00'0 0.0
2015-May-22 19:29N 29°56' W 090°00'0 0.0
2015-May-22 18:28N 29°56' W 090°00'0 0.0
2015-May-22 02:21N 29°57' W 090°01'3 0.8
2015-May-21 22:18N 29°60' W 090°00'0 0.1
2015-May-21 19:29N 29°60' W 090°00'3 2.1
2015-May-21 18:15N 29°58' W 090°02'0 0.3
2015-May-21 17:31N 29°58' W 090°02'2 0.8
2015-May-21 15:33N 29°56' W 090°00'0 0.0
2015-May-21 14:16N 29°56' W 090°00'0 0.0
2015-May-21 13:31N 29°56' W 090°00'0 0.0
2015-May-21 12:33N 29°56' W 090°00'0 0.0
2015-May-21 11:29N 29°56' W 090°00'0 0.0
2015-May-21 10:28N 29°56' W 090°00'0 0.0
2015-May-21 09:32N 29°56' W 090°00'0 0.0
2015-May-21 08:30N 29°56' W 090°00'0 0.0
2015-May-21 07:33N 29°56' W 090°00'0 0.0
2015-May-21 06:33N 29°56' W 090°00'0 0.0
2015-May-21 05:31N 29°56' W 090°00'0 0.0
2015-May-21 04:32N 29°56' W 090°00'0 0.0
2015-May-21 03:32N 29°56' W 090°00'0 0.0
2015-May-21 02:33N 29°56' W 090°00'2 1.9
2015-May-21 01:32N 29°58' W 090°02'2 2.3
2015-May-21 00:32N 29°60' W 090°00'2 2.2
2015-May-20 23:33N 29°58' W 090°02'1 1.0
2015-May-20 22:31N 29°57' W 090°02'1 1.0
2015-May-20 21:04N 29°56' W 090°00'0 0.0
2015-May-20 20:18N 29°56' W 090°00'0 0.0
2015-May-20 06:08N 29°56' W 090°00'0 0.0
2015-May-20 04:24N 29°56' W 090°00'0 0.0
2015-May-20 03:23N 29°56' W 090°00'0 0.0
2015-May-20 02:14N 29°56' W 090°00'0 0.0
2015-May-20 01:33N 29°56' W 090°00'0 0.0
2015-May-20 00:16N 29°56' W 090°00'0 0.0
2015-May-19 23:29N 29°56' W 090°00'0 0.0
2015-May-19 22:31N 29°56' W 090°00'0 0.0
2015-May-19 21:11N 29°56' W 090°00'0 0.0
2015-May-19 20:19N 29°56' W 090°00'  

Dump ship's entire track history